createdAt,value
2022-08-04T00:04:38.787Z,3.15
2022-08-04T00:15:37.061Z,3.15
2022-08-04T00:26:38.709Z,3.15
2022-08-04T00:37:40.265Z,3.15
2022-08-04T00:48:38.858Z,3.14
2022-08-04T00:59:40.635Z,3.14
2022-08-04T01:10:42.648Z,3.14
2022-08-04T01:21:38.318Z,3.13
2022-08-04T01:32:26.092Z,3.12
2022-08-04T01:43:27.935Z,3.12
2022-08-04T01:54:30.058Z,3.12
2022-08-04T02:06:02.504Z,3.11
2022-08-04T02:16:27.060Z,3.11
2022-08-04T02:27:06.930Z,3.10
2022-08-04T02:38:08.089Z,3.10
2022-08-04T02:49:08.693Z,3.10
2022-08-04T03:00:10.106Z,3.10
2022-08-04T03:11:11.884Z,3.09
2022-08-04T03:22:11.615Z,3.09
2022-08-04T03:33:13.407Z,3.09
2022-08-04T03:44:12.424Z,3.08
2022-08-04T03:55:12.815Z,3.08
2022-08-04T04:06:11.566Z,3.08
2022-08-04T04:17:13.902Z,3.08
2022-08-04T04:28:44.712Z,3.08
2022-08-04T04:39:09.336Z,3.08
2022-08-04T04:50:09.149Z,3.09
2022-08-04T05:01:07.374Z,3.09
2022-08-04T05:12:59.187Z,3.09
2022-08-04T05:23:10.632Z,3.10
2022-08-04T05:34:09.216Z,3.10
2022-08-04T05:45:06.561Z,3.11
2022-08-04T05:56:08.866Z,3.12
2022-08-04T06:07:11.494Z,3.13
2022-08-04T06:19:56.951Z,3.15
2022-08-04T06:29:15.962Z,3.15
2022-08-04T06:40:30.713Z,3.17
2022-08-04T06:51:24.572Z,3.18
2022-08-04T07:02:24.760Z,3.19
2022-08-04T07:13:26.353Z,3.21
2022-08-04T07:24:23.401Z,3.22
2022-08-04T07:36:05.199Z,3.23
2022-08-04T07:46:31.674Z,3.25
2022-08-04T07:57:41.681Z,3.26
2022-08-04T08:08:35.806Z,3.28
2022-08-04T08:19:37.307Z,3.29
2022-08-04T08:30:38.792Z,3.30
2022-08-04T08:41:40.069Z,3.31
2022-08-04T08:52:57.288Z,3.33
2022-08-04T09:03:38.993Z,3.34
2022-08-04T09:14:38.112Z,3.36
2022-08-04T09:25:27.155Z,3.37
2022-08-04T09:36:14.390Z,3.39
2022-08-04T09:47:18.942Z,3.34
2022-08-04T09:58:17.980Z,3.34
2022-08-04T10:09:15.488Z,3.34
2022-08-04T10:20:15.840Z,3.34
2022-08-04T10:31:20.394Z,3.34
2022-08-04T10:42:21.424Z,3.34
2022-08-04T10:53:20.243Z,3.34
2022-08-04T11:04:27.583Z,3.34
2022-08-04T11:15:23.002Z,3.34
2022-08-04T11:26:24.736Z,3.34
2022-08-04T11:37:24.725Z,3.34
2022-08-04T11:48:23.296Z,3.33
2022-08-04T11:59:19.489Z,3.34
2022-08-04T12:10:17.225Z,3.34
2022-08-04T12:21:15.912Z,3.33
2022-08-04T12:32:09.753Z,3.34
2022-08-04T12:43:09.310Z,3.34
2022-08-04T12:54:05.467Z,3.34
2022-08-04T13:05:06.577Z,3.33
2022-08-04T13:16:05.340Z,3.34
2022-08-04T13:27:07.518Z,3.33
2022-08-04T13:38:09.403Z,3.34
2022-08-04T13:49:42.790Z,3.34
2022-08-04T14:00:12.428Z,3.34
2022-08-04T14:11:07.730Z,3.34
2022-08-04T14:22:02.223Z,3.35
2022-08-04T14:34:02.537Z,3.34
2022-08-04T14:43:59.581Z,3.34
2022-08-04T14:54:59.843Z,3.33
2022-08-04T15:06:10.864Z,3.35
2022-08-04T15:17:09.859Z,3.34
2022-08-04T15:27:59.878Z,3.33
2022-08-04T15:38:56.278Z,3.39
2022-08-04T15:49:43.177Z,3.39
2022-08-04T16:00:39.515Z,3.39
2022-08-04T16:11:38.019Z,3.39
2022-08-04T16:22:39.461Z,3.39
2022-08-04T16:33:43.794Z,3.39
2022-08-04T16:44:53.081Z,3.38
2022-08-04T16:55:46.613Z,3.37
2022-08-04T17:06:46.930Z,3.37
2022-08-04T17:18:05.492Z,3.37
2022-08-04T17:28:47.726Z,3.36
2022-08-04T17:39:46.296Z,3.34
2022-08-04T17:50:43.430Z,3.34
2022-08-04T18:01:38.464Z,3.33
2022-08-04T18:12:42.421Z,3.32
2022-08-04T18:23:50.712Z,3.31
2022-08-04T18:34:55.076Z,3.30
2022-08-04T18:45:51.289Z,3.30
2022-08-04T19:08:02.145Z,3.29
2022-08-04T19:18:56.020Z,3.28
2022-08-04T19:29:57.017Z,3.28
2022-08-04T19:40:57.570Z,3.27
2022-08-04T19:51:56.631Z,3.27
2022-08-04T20:02:48.250Z,3.26
2022-08-04T20:13:54.627Z,3.26
2022-08-04T20:25:00.450Z,3.25
2022-08-04T20:36:05.083Z,3.25
2022-08-04T20:46:46.246Z,3.25
2022-08-04T20:57:50.645Z,3.24
2022-08-04T21:08:57.340Z,3.24
2022-08-04T21:19:56.651Z,3.23
2022-08-04T21:30:56.461Z,3.23
2022-08-04T21:42:27.985Z,3.22
2022-08-04T21:52:55.241Z,3.22
2022-08-04T22:03:57.013Z,3.22
2022-08-04T22:14:59.732Z,3.22
2022-08-04T22:25:59.151Z,3.21
2022-08-04T22:36:59.491Z,3.21
2022-08-04T22:47:58.591Z,3.20
2022-08-04T22:59:00.993Z,3.20
2022-08-04T23:10:01.666Z,3.19
2022-08-04T23:21:02.934Z,3.19
2022-08-04T23:32:00.293Z,3.19
2022-08-04T23:42:58.626Z,3.18
2022-08-04T23:54:01.795Z,3.18
